Historyczne dane pomiarowe

Dodano dane terminowe – wersja testowa.

Dane z okresu 1951-2019

Wersja bazy: 1.34 [2019-03-16, lista zmian], aktualizacja planowana na 2019-04-15

Dane meteo z obszaru Polski uzyskane na podstawie danych udostępnionych przez Instytut Meteorologii i Gospodarki Wodnej – Państwowy Instytut Badawczy.

 

Wybierz Datę:    

       

TemperaturaWilgotnośćWiatrCiśnienieOpadyŚniegCzas trwania zjawisk
 Stacja t tx tn tng RH VA  wxwx mslp ppp RRR   cm mm wxwxwxwxwxwxwx
1959-10-10 4.8 13.6 -4.1-11.4 60.5- 0.0 0.3---- 0.0------------
1959-10-09 6.4 13.2 3.4 4.8 59.5- 2.3 2.0---- 0.0------------
1959-10-08 9.2 16.2 1.1 -3.8 70.3- 2.3 2.7---- 0.0------------
1959-10-07 11.0 17.2 2.8 -0.4 57.0- 3.7 2.3---- 0.0------------
1959-10-06 6.5 13.2 -3.7 -8.5 45.5- 2.3 3.0---- 0.0------------
1959-10-05 1.2 7.8 -2.9-10.4 66.3- 0.0 1.3---- 0.0------------
1959-10-04 3.6 11.0 1.1 1.4 59.8- 0.7 3.7---- 0.0------------
1959-10-03 10.8 18.0 4.0 -2.2 70.5- 6.0 1.7---- 0.0------------
1959-10-02 8.0 15.2 4.7 -0.8 78.0- 2.3 1.3---- 0.0------------
1959-10-01 9.5 15.2 0.5 -5.5 75.5- 5.0 6.0---- 0.0------------
1959-09-30 5.5 10.4 3.2 3.3 66.5- 2.7 2.7---- 0.0------------
1959-09-29 6.4 10.3 1.3 -0.8 74.3- 4.7 5.7---- 0.0------------
1959-09-28 6.0 14.8 4.7 4.4 72.5- 7.0 5.3---- 0.3------------
1959-09-27 13.0 17.4 3.4 -3.5 63.0- 7.7 1.0---- 0.0------------
1959-09-26 8.8 17.2 -0.7 -4.5 65.0- 2.7 0.3---- 0.0------------
1959-09-25 8.6 14.8 5.9 1.6 74.3- 1.3 1.7---- 0.0------------
1959-09-24 10.4 15.4 8.6 6.3 66.0- 4.3 3.3---- 0.0------------
1959-09-23 13.9 19.0 8.0 4.8 60.3- 5.3 6.3---- 0.0------------
1959-09-22 15.2 22.2 9.6 7.3 67.3- 6.7 5.3---- 0.0------------
1959-09-21 12.8 21.2 4.0 -1.6 63.3- 0.3 2.0---- 0.0------------
1959-09-20 13.6 19.2 10.0 8.6 56.3- 4.3 4.3---- 0.0------------
1959-09-19 11.2 17.2 2.0 -2.7 59.8- 3.0 4.7---- 0.0------------
1959-09-18 8.2 15.2 0.9 -2.4 62.8- 2.0 3.0---- 0.0------------
1959-09-17 7.8 14.2 1.8 -1.6 57.3- 1.3 2.7---- 0.0------------
1959-09-16 11.6 17.6 8.5 6.6 76.3- 2.7 6.0---- 0.4------------
1959-09-15 11.4 17.8 3.7 -1.7 63.8- 1.0 3.0---- 0.0------------
1959-09-14 13.0 17.6 11.0 7.2 67.8- 6.0 3.7---- 0.0------------
1959-09-13 17.1 24.1 8.4 4.4 63.5- 5.7 4.3---- 0.0------------
1959-09-12 15.1 21.7 7.5 2.2 66.0- 5.3 3.0---- 0.0------------
1959-09-11 14.3 21.7 8.6 5.8 71.8- 3.7 2.7---- 0.0------------
1959-09-10 13.3 20.7 4.2 0.4 64.8- 2.7 0.3---- 0.0------------
1959-09-09 14.2 19.7 11.0 8.8 63.8- 2.7 1.0---- 0.0------------
1959-09-08 15.6 20.7 10.0 5.4 62.0- 6.7 2.7---- 0.0------------
1959-09-07 13.3 19.2 9.5 6.3 64.8- 3.3 2.3---- 0.0------------
1959-09-06 12.4 18.2 5.9 1.3 69.8- 5.7 0.7---- 0.0------------
1959-09-05 10.8 18.2 5.6 2.2 65.5- 1.3 0.7---- 0.0------------
1959-09-04 11.8 16.7 8.4 6.6 69.5- 5.0 2.7---- 0.0------------
1959-09-03 13.0 17.2 9.0 5.0 82.5- 6.0 1.3---- 0.0------------
1959-09-02 11.2 16.0 4.6 2.2 77.8- 6.0 2.0---- 0.0------------
1959-09-01 10.2 15.2 7.6 5.3 84.0- 2.7 3.0---- 1.5------------
1959-08-31 11.8 15.8 7.3 4.6 84.3- 7.3 3.0---- 5.6------------
1959-08-30 11.6 16.4 8.2 3.8 62.3- 3.7 4.0---- 0.0------------
1959-08-29 12.0 18.0 5.6 -0.8 60.5- 2.3 2.3---- 0.0------------
1959-08-28 13.6 17.6 7.6 4.3 68.0- 5.0 5.0---- 0.0------------
1959-08-27 17.4 22.0 15.2 11.9 53.3- 2.7 5.7---- 0.2------------
1959-08-26 21.2 23.2 18.6 18.8 67.0- 7.0 6.0---- 0.0------------
1959-08-25 22.7 27.6 16.5 12.4 59.3- 4.3 6.3---- 0.0------------
1959-08-24 22.1 29.6 15.2 9.3 67.0- 0.3 1.3---- 0.0------------
1959-08-23 23.1 29.6 14.5 9.3 60.5- 0.0 1.7---- 0.0------------
1959-08-22 22.0 28.6 14.0 8.8 67.0- 1.0 1.0---- 0.0------------
1959-08-21 20.9 26.6 12.6 7.6 60.3- 1.3 0.0---- 0.0------------
1959-08-20 20.5 27.6 14.4 9.4 63.0- 1.3 1.7---- 0.0------------
1959-08-19 20.1 26.3 14.2 11.4 74.0- 3.3 1.3---- 0.0------------
1959-08-18 19.3 26.6 13.4 9.6 65.5- 4.7 1.7---- 1.1------------
1959-08-17 18.9 24.6 15.0 12.9 71.3- 4.0 3.0---- 0.2------------
1959-08-16 19.2 25.1 12.5 9.3 65.5- 4.0 4.0---- 0.0------------
1959-08-15 17.9 23.2 13.8 12.3 68.5- 2.3 2.7---- 0.0------------
1959-08-14 17.0 19.8 13.8 13.1 72.8- 8.0 3.3---- 1.6------------
1959-08-13 19.8 23.9 17.2 14.9 79.3- 4.7 6.3---- 12.7------------
1959-08-12 21.5 27.6 16.0 13.4 74.3- 2.3 2.0---- 0.0------------
152.3 ms

 

Źródłem pochodzenia danych jest Instytut Meteorologii i Gospodarki Wodnej – Państwowy Instytut Badawczy. Dane Instytutu Meteorologii i Gospodarki Wodnej – Państwowego Instytutu Badawczego zostały przetworzone.

Dane źródłowe można odnaleźć na stronie https://dane.imgw.pl